Time;durP1;ratioP1;P1;durP2;ratioP2;P2;SDS_P1;SDS_P2;PMS_P1;PMS_P2;Temp;Humidity;BMP_temperature;BMP_pressure;BME280_temperature;BME280_humidity;BME280_pressure;Samples;Min_cycle;Max_cycle;Signal;HPM_P1;HPM_P2
2021/08/07 00:00:14;;;;;;;4.63;4.23;;;16.90;1.00;;;;;;5121257;27;20426;-74
2021/08/07 00:02:41;;;;;;;4.80;4.33;;;16.90;1.00;;;;;;5127792;27;20461;-72
2021/08/07 00:05:08;;;;;;;5.57;4.50;;;16.90;1.00;;;;;;5124812;27;20421;-73
2021/08/07 00:07:35;;;;;;;4.20;3.90;;;16.90;1.00;;;;;;5131996;27;23031;-73
2021/08/07 00:10:01;;;;;;;4.90;4.50;;;16.80;1.00;;;;;;5125932;27;20411;-72
2021/08/07 00:12:28;;;;;;;4.83;4.47;;;16.80;1.00;;;;;;5131424;27;20476;-72
2021/08/07 00:14:56;;;;;;;10.33;9.53;;;16.80;1.00;;;;;;5140111;27;20451;-74
2021/08/07 00:17:23;;;;;;;5.53;4.53;;;16.80;1.00;;;;;;5137067;27;20448;-74
2021/08/07 00:19:49;;;;;;;4.43;4.03;;;16.80;1.00;;;;;;5139151;27;20409;-73
2021/08/07 00:22:16;;;;;;;5.00;4.50;;;16.80;1.00;;;;;;5126899;27;20453;-74
2021/08/07 00:24:43;;;;;;;4.27;3.90;;;16.80;1.00;;;;;;5129940;27;20453;-74
2021/08/07 00:27:10;;;;;;;4.60;4.20;;;16.80;1.00;;;;;;5126687;27;20452;-73
2021/08/07 00:29:36;;;;;;;4.07;3.67;;;16.80;1.00;;;;;;5135788;27;20535;-73
2021/08/07 00:32:05;;;;;;;3.87;3.47;;;16.80;1.00;;;;;;5139408;27;20450;-72
2021/08/07 00:34:32;;;;;;;5.40;4.90;;;16.70;1.00;;;;;;5114584;27;20448;-72
2021/08/07 00:36:58;;;;;;;5.63;4.23;;;16.80;1.00;;;;;;5127001;27;20425;-72
2021/08/07 00:39:32;;;;;;;4.30;3.90;;;16.80;1.00;;;;;;5128808;27;20416;-72
2021/08/07 00:41:59;;;;;;;5.20;4.67;;;16.80;1.00;;;;;;5130739;27;20416;-73
2021/08/07 00:44:25;;;;;;;4.80;4.40;;;16.80;1.00;;;;;;5140627;27;20412;-72
2021/08/07 00:46:53;;;;;;;4.80;4.40;;;16.70;1.00;;;;;;5134171;27;20425;-72
2021/08/07 00:49:22;;;;;;;4.70;4.30;;;16.70;1.00;;;;;;5132353;27;20449;-72
2021/08/07 00:51:50;;;;;;;5.80;4.33;;;16.70;1.00;;;;;;5134811;27;20436;-72
2021/08/07 00:54:17;;;;;;;4.40;4.00;;;16.70;1.00;;;;;;5136708;27;20880;-72
2021/08/07 00:56:44;;;;;;;4.87;4.47;;;16.70;1.00;;;;;;5130604;27;20665;-72
2021/08/07 00:59:10;;;;;;;6.00;4.70;;;16.70;1.00;;;;;;5133144;27;21194;-73
2021/08/07 01:01:43;;;;;;;5.23;4.60;;;16.70;1.00;;;;;;5133397;27;20572;-74
2021/08/07 01:04:17;;;;;;;4.50;4.10;;;16.60;1.00;;;;;;5123033;27;20453;-74
2021/08/07 01:06:50;;;;;;;4.73;4.33;;;16.70;1.00;;;;;;5131329;27;20483;-74
2021/08/07 01:09:27;;;;;;;4.93;4.03;;;16.70;1.00;;;;;;5125768;27;20427;-73
2021/08/07 01:11:58;;;;;;;5.37;4.87;;;16.60;1.00;;;;;;5135344;27;20420;-74
2021/08/07 01:14:32;;;;;;;5.20;4.80;;;16.60;1.00;;;;;;5133823;27;21175;-72
2021/08/07 01:17:00;;;;;;;4.60;4.20;;;16.60;1.00;;;;;;5140801;27;20481;-73
2021/08/07 01:19:34;;;;;;;5.00;4.57;;;16.60;1.00;;;;;;5138489;27;20405;-72
2021/08/07 01:22:05;;;;;;;5.27;4.77;;;16.60;1.00;;;;;;5139715;27;20701;-73
2021/08/07 01:24:37;;;;;;;6.37;5.77;;;16.50;1.00;;;;;;5137612;27;20568;-75
2021/08/07 01:27:22;;;;;;;5.10;4.60;;;16.50;1.00;;;;;;5117559;27;20467;-74
2021/08/07 01:29:50;;;;;;;5.93;5.33;;;16.50;1.00;;;;;;5120327;27;20493;-73
2021/08/07 01:32:17;;;;;;;5.53;5.00;;;16.50;1.00;;;;;;5116565;27;20460;-74
2021/08/07 01:34:44;;;;;;;4.87;4.47;;;16.50;1.00;;;;;;5122320;27;20424;-73
2021/08/07 01:37:13;;;;;;;5.23;4.77;;;16.50;1.00;;;;;;5120275;27;20440;-73
2021/08/07 01:39:44;;;;;;;4.80;4.40;;;16.50;1.00;;;;;;5128489;27;21090;-73
2021/08/07 01:42:13;;;;;;;4.40;4.00;;;16.50;1.00;;;;;;5122241;27;20428;-73
2021/08/07 01:44:39;;;;;;;5.50;5.00;;;16.50;1.00;;;;;;5116811;27;20796;-73
2021/08/07 01:47:09;;;;;;;4.87;4.47;;;16.50;1.00;;;;;;5120960;27;20424;-72
2021/08/07 01:49:42;;;;;;;4.83;4.43;;;16.40;1.00;;;;;;5138178;27;20392;-72
2021/08/07 01:52:16;;;;;;;6.50;4.70;;;16.40;1.00;;;;;;5142635;27;20483;-72
2021/08/07 01:54:47;;;;;;;5.60;5.13;;;16.40;1.00;;;;;;5114522;27;20444;-72
2021/08/07 01:57:20;;;;;;;5.33;4.87;;;16.40;1.00;;;;;;5116076;27;20460;-74
2021/08/07 01:59:48;;;;;;;5.27;4.77;;;16.40;1.00;;;;;;5115855;27;21642;-72
2021/08/07 02:02:15;;;;;;;4.80;4.40;;;16.30;1.00;;;;;;5112852;27;20444;-74
2021/08/07 02:04:42;;;;;;;5.30;4.90;;;16.40;1.00;;;;;;5113230;27;20451;-72
2021/08/07 02:07:09;;;;;;;4.80;4.40;;;16.30;1.00;;;;;;5113763;27;20903;-72
2021/08/07 02:09:38;;;;;;;5.63;5.10;;;16.30;1.00;;;;;;5116876;27;20435;-72
2021/08/07 02:12:06;;;;;;;5.63;5.17;;;16.30;1.00;;;;;;5114283;27;20462;-72
2021/08/07 02:14:37;;;;;;;5.30;4.80;;;16.30;1.00;;;;;;5119383;27;21991;-72
2021/08/07 02:17:06;;;;;;;5.80;5.00;;;16.30;1.00;;;;;;5115106;27;20451;-74
2021/08/07 02:19:33;;;;;;;5.67;5.20;;;16.30;1.00;;;;;;5114572;27;20476;-74
2021/08/07 02:22:00;;;;;;;4.93;4.40;;;16.30;1.00;;;;;;5109426;27;20469;-73
2021/08/07 02:24:27;;;;;;;5.63;4.83;;;16.30;1.00;;;;;;5110599;27;20970;-72
2021/08/07 02:26:54;;;;;;;5.93;5.43;;;16.30;1.00;;;;;;5093573;27;20418;-73
2021/08/07 02:29:22;;;;;;;7.10;5.90;;;16.30;1.00;;;;;;5114743;27;20601;-72
2021/08/07 02:31:51;;;;;;;5.70;5.10;;;16.30;1.00;;;;;;5114884;27;20537;-72
2021/08/07 02:34:19;;;;;;;5.03;4.60;;;16.30;1.00;;;;;;5109658;27;20452;-74
2021/08/07 02:36:47;;;;;;;5.57;5.07;;;16.20;1.00;;;;;;5113374;27;20461;-73
2021/08/07 02:39:14;;;;;;;6.03;5.47;;;16.20;1.00;;;;;;5112081;27;20459;-73
2021/08/07 02:41:41;;;;;;;5.17;4.70;;;16.20;1.00;;;;;;5110612;27;21307;-74
2021/08/07 02:44:08;;;;;;;5.57;5.07;;;16.20;1.00;;;;;;5115578;27;20414;-74
2021/08/07 02:46:39;;;;;;;6.00;5.50;;;16.20;1.00;;;;;;5117101;27;20522;-73
2021/08/07 02:49:08;;;;;;;6.60;5.60;;;16.20;1.00;;;;;;5118924;27;20413;-71
2021/08/07 02:51:35;;;;;;;6.43;5.83;;;16.20;1.00;;;;;;5116584;27;20451;-72
2021/08/07 02:54:02;;;;;;;5.87;5.37;;;16.20;1.00;;;;;;5118085;27;20529;-72
2021/08/07 02:56:28;;;;;;;5.80;5.20;;;16.10;1.00;;;;;;5119707;27;20464;-72
2021/08/07 02:58:55;;;;;;;8.90;5.73;;;16.10;1.00;;;;;;5120509;27;20909;-74
2021/08/07 03:01:22;;;;;;;8.57;6.70;;;16.10;1.00;;;;;;5115386;27;20917;-72
2021/08/07 03:03:49;;;;;;;6.60;6.00;;;16.10;1.00;;;;;;5115592;27;20461;-72
2021/08/07 03:06:17;;;;;;;7.00;6.30;;;16.00;1.00;;;;;;5114632;27;21273;-72
2021/08/07 03:08:43;;;;;;;7.20;6.03;;;16.00;1.00;;;;;;5114584;27;20488;-72
2021/08/07 03:11:11;;;;;;;6.20;5.70;;;16.00;1.00;;;;;;5119060;27;20414;-73
2021/08/07 03:13:37;;;;;;;6.73;6.00;;;16.00;1.00;;;;;;5127845;27;21172;-75
2021/08/07 03:16:05;;;;;;;6.67;6.07;;;16.00;1.00;;;;;;5118102;27;20451;-72
2021/08/07 03:18:31;;;;;;;6.53;5.87;;;16.00;1.00;;;;;;5122332;27;20516;-72
2021/08/07 03:20:58;;;;;;;7.27;6.33;;;16.00;1.00;;;;;;5115195;27;21241;-72
2021/08/07 03:23:26;;;;;;;6.63;5.93;;;16.00;1.00;;;;;;5120187;27;20453;-72
2021/08/07 03:25:53;;;;;;;7.77;7.00;;;16.00;1.00;;;;;;5119184;27;20456;-72
2021/08/07 03:28:19;;;;;;;7.63;6.83;;;16.00;1.00;;;;;;5119819;27;20486;-73
2021/08/07 03:30:46;;;;;;;7.50;6.73;;;15.90;1.00;;;;;;5116543;27;20424;-73
2021/08/07 03:33:13;;;;;;;7.13;5.80;;;15.90;1.00;;;;;;5117600;27;20559;-72
2021/08/07 03:35:40;;;;;;;7.20;6.57;;;15.90;1.00;;;;;;5116827;27;20466;-74
2021/08/07 03:38:06;;;;;;;7.00;6.30;;;15.90;1.00;;;;;;5118086;27;20457;-73
2021/08/07 03:40:34;;;;;;;7.00;5.83;;;15.90;1.00;;;;;;5121197;27;20474;-73
2021/08/07 03:43:01;;;;;;;6.57;5.97;;;15.90;1.00;;;;;;5115176;27;20445;-73
2021/08/07 03:45:28;;;;;;;7.17;6.57;;;15.90;1.00;;;;;;5115451;27;20465;-73
2021/08/07 03:47:55;;;;;;;7.73;6.53;;;15.90;1.00;;;;;;5118314;27;20416;-72
2021/08/07 03:50:23;;;;;;;7.10;6.40;;;15.90;1.00;;;;;;5127582;27;20581;-73
2021/08/07 03:52:50;;;;;;;7.63;6.83;;;15.80;1.00;;;;;;5114371;27;20466;-72
2021/08/07 03:55:17;;;;;;;7.90;7.17;;;15.80;1.00;;;;;;5119874;27;20562;-73
2021/08/07 03:57:53;;;;;;;8.03;7.23;;;15.80;1.00;;;;;;5119517;27;20970;-73
2021/08/07 04:00:21;;;;;;;7.93;7.23;;;15.80;1.00;;;;;;5117841;27;20629;-73
2021/08/07 04:02:48;;;;;;;8.07;7.27;;;15.80;1.00;;;;;;5114985;27;20467;-73
2021/08/07 04:05:14;;;;;;;6.70;6.10;;;15.80;1.00;;;;;;5114074;27;20466;-73
2021/08/07 04:07:41;;;;;;;8.40;7.60;;;15.80;1.00;;;;;;5117682;27;20418;-73
2021/08/07 04:10:09;;;;;;;7.80;7.10;;;15.80;1.00;;;;;;5123253;27;21345;-72
2021/08/07 04:12:36;;;;;;;8.70;7.90;;;15.80;1.00;;;;;;5119715;27;20463;-73
2021/08/07 04:15:05;;;;;;;8.07;7.30;;;15.80;1.00;;;;;;5121488;27;20455;-73
2021/08/07 04:17:32;;;;;;;8.20;7.50;;;15.80;1.00;;;;;;5097507;27;20418;-73
2021/08/07 04:19:59;;;;;;;8.37;7.57;;;15.80;1.00;;;;;;5119166;27;20449;-73
2021/08/07 04:22:26;;;;;;;8.67;7.87;;;15.90;1.00;;;;;;5121800;27;20451;-73
2021/08/07 04:24:52;;;;;;;8.43;7.73;;;15.90;1.00;;;;;;5115401;27;20442;-73
2021/08/07 04:27:20;;;;;;;8.67;7.90;;;15.90;1.00;;;;;;5116361;27;21365;-73
2021/08/07 04:29:48;;;;;;;8.00;7.30;;;15.90;1.00;;;;;;5119861;27;21624;-73
2021/08/07 04:32:16;;;;;;;8.00;7.20;;;15.90;1.00;;;;;;5117003;27;20447;-73
2021/08/07 04:34:43;;;;;;;8.87;8.00;;;16.00;1.00;;;;;;5123872;27;20451;-72
2021/08/07 04:37:10;;;;;;;9.00;8.20;;;16.00;1.00;;;;;;5117926;27;20438;-72
2021/08/07 04:39:37;;;;;;;9.07;6.70;;;16.00;1.00;;;;;;5117372;27;20908;-74
2021/08/07 04:42:04;;;;;;;9.20;8.10;;;16.00;1.00;;;;;;5121932;27;20447;-72
2021/08/07 04:44:31;;;;;;;9.17;7.70;;;16.10;1.00;;;;;;5117765;27;20476;-73
2021/08/07 04:46:57;;;;;;;8.33;7.60;;;16.10;1.00;;;;;;5118440;27;20440;-73
2021/08/07 04:49:25;;;;;;;8.03;7.33;;;16.10;1.00;;;;;;5116515;27;20943;-73
2021/08/07 04:51:52;;;;;;;7.03;6.43;;;16.20;1.00;;;;;;5128141;27;20434;-73
2021/08/07 04:54:19;;;;;;;7.60;6.90;;;16.20;1.00;;;;;;5115286;27;20485;-71
2021/08/07 04:56:45;;;;;;;7.43;6.80;;;16.30;1.00;;;;;;5112889;27;20412;-71
2021/08/07 04:59:12;;;;;;;7.40;6.70;;;16.30;1.00;;;;;;5111052;27;20538;-71
2021/08/07 05:01:38;;;;;;;8.03;6.80;;;16.30;1.00;;;;;;5109896;27;20979;-69
2021/08/07 05:04:05;;;;;;;8.27;7.10;;;16.40;1.00;;;;;;5114052;27;20459;-71
2021/08/07 05:06:33;;;;;;;7.73;6.93;;;16.40;1.00;;;;;;5112880;27;20444;-70
2021/08/07 05:09:00;;;;;;;7.80;7.00;;;16.50;1.00;;;;;;5111807;27;21027;-70
2021/08/07 05:11:27;;;;;;;7.20;6.60;;;16.50;1.00;;;;;;5112643;27;20442;-71
2021/08/07 05:13:53;;;;;;;7.63;6.90;;;16.60;1.00;;;;;;5108094;27;20468;-71
2021/08/07 05:16:20;;;;;;;7.47;6.77;;;16.60;1.00;;;;;;5111002;27;20439;-71
2021/08/07 05:18:46;;;;;;;7.37;6.67;;;16.60;1.00;;;;;;5112617;27;20528;-71
2021/08/07 05:21:13;;;;;;;6.30;5.77;;;16.70;1.00;;;;;;5109260;27;20451;-71
2021/08/07 05:23:42;;;;;;;7.20;6.60;;;16.70;1.00;;;;;;5110836;27;20472;-70
2021/08/07 05:26:09;;;;;;;7.80;6.20;;;16.80;1.00;;;;;;5111476;27;20517;-71
2021/08/07 05:28:35;;;;;;;7.17;6.13;;;16.90;1.00;;;;;;5110820;27;20459;-70
2021/08/07 05:31:02;;;;;;;7.97;6.90;;;16.90;1.00;;;;;;5113399;27;20457;-71
2021/08/07 05:33:29;;;;;;;7.03;6.30;;;17.10;1.00;;;;;;5113666;27;20461;-72
2021/08/07 05:35:55;;;;;;;6.27;5.40;;;17.10;1.00;;;;;;5117393;27;20408;-72
2021/08/07 05:38:22;;;;;;;6.63;5.93;;;17.20;1.00;;;;;;5114300;27;20459;-70
2021/08/07 05:40:51;;;;;;;5.90;5.30;;;17.30;1.00;;;;;;5089626;27;21039;-69
2021/08/07 05:43:17;;;;;;;6.03;5.50;;;17.30;1.00;;;;;;5112395;27;20500;-70
2021/08/07 05:45:44;;;;;;;6.33;5.20;;;17.40;1.00;;;;;;5112311;27;20444;-71
2021/08/07 05:48:12;;;;;;;6.60;5.90;;;17.60;1.00;;;;;;5116631;27;21360;-69
2021/08/07 05:50:38;;;;;;;5.70;4.90;;;17.60;1.00;;;;;;5110667;27;21305;-71
2021/08/07 05:53:05;;;;;;;6.97;5.87;;;17.70;1.00;;;;;;5109454;27;20482;-70
2021/08/07 05:55:32;;;;;;;6.00;5.40;;;17.90;1.00;;;;;;5111134;27;20499;-69
2021/08/07 05:58:02;;;;;;;6.07;5.50;;;17.90;1.00;;;;;;5108024;27;20436;-70
2021/08/07 06:00:29;;;;;;;6.90;6.20;;;18.00;1.00;;;;;;5095502;27;20465;-69
2021/08/07 06:02:56;;;;;;;5.53;5.03;;;18.00;1.00;;;;;;5110347;27;20459;-69
2021/08/07 06:05:23;;;;;;;5.73;5.20;;;18.10;1.00;;;;;;5122618;27;20435;-70
2021/08/07 06:07:51;;;;;;;5.67;5.13;;;18.10;1.00;;;;;;5125073;27;20524;-70
2021/08/07 06:10:18;;;;;;;5.57;5.07;;;18.10;1.00;;;;;;5124633;27;20522;-69
2021/08/07 06:12:44;;;;;;;6.37;5.77;;;18.20;1.00;;;;;;5126962;27;20447;-69
2021/08/07 06:15:13;;;;;;;7.57;6.87;;;18.20;1.00;;;;;;5124025;27;20456;-71
2021/08/07 06:17:40;;;;;;;7.93;7.10;;;18.20;1.00;;;;;;5129649;27;21306;-72
2021/08/07 06:20:10;;;;;;;7.30;6.70;;;18.20;1.00;;;;;;5127617;27;20456;-69
2021/08/07 06:22:37;;;;;;;6.87;6.27;;;18.20;1.00;;;;;;5127390;27;21101;-71
2021/08/07 06:25:04;;;;;;;6.87;6.17;;;18.30;1.00;;;;;;5128457;27;20440;-70
2021/08/07 06:27:32;;;;;;;7.77;7.07;;;18.20;1.00;;;;;;5128295;27;20568;-71
2021/08/07 06:29:59;;;;;;;6.33;5.73;;;18.30;1.00;;;;;;5126669;27;20459;-70
2021/08/07 06:32:27;;;;;;;6.60;6.07;;;18.30;1.00;;;;;;5123737;27;20451;-69
2021/08/07 06:34:54;;;;;;;7.30;6.60;;;18.30;1.00;;;;;;5129367;27;20444;-71
2021/08/07 06:37:20;;;;;;;6.87;6.27;;;18.40;1.00;;;;;;5128849;27;21770;-71
2021/08/07 06:39:47;;;;;;;5.40;5.00;;;18.50;1.00;;;;;;5128768;27;20448;-71
2021/08/07 06:42:14;;;;;;;5.90;5.30;;;18.60;1.00;;;;;;5127601;27;20429;-71
2021/08/07 06:44:40;;;;;;;6.10;5.60;;;18.60;1.00;;;;;;5145089;27;20447;-69
2021/08/07 06:47:07;;;;;;;5.30;4.80;;;18.70;1.00;;;;;;5141171;27;20457;-70
2021/08/07 06:49:35;;;;;;;6.07;5.57;;;18.80;1.00;;;;;;5134912;27;20467;-71
2021/08/07 06:52:01;;;;;;;6.30;4.80;;;18.90;1.00;;;;;;5145083;27;20413;-74
2021/08/07 06:54:28;;;;;;;4.97;4.47;;;19.00;1.00;;;;;;5155271;27;20457;-75
2021/08/07 06:56:55;;;;;;;4.43;4.03;;;19.00;1.00;;;;;;5150904;27;20533;-76
2021/08/07 06:59:21;;;;;;;4.97;4.47;;;19.10;1.00;;;;;;5142985;27;20477;-74
2021/08/07 07:01:49;;;;;;;4.63;4.23;;;19.20;1.00;;;;;;5143459;27;21016;-74
2021/08/07 07:04:16;;;;;;;5.40;4.47;;;19.20;1.00;;;;;;5139690;27;20419;-73
2021/08/07 07:06:44;;;;;;;4.93;4.03;;;19.20;1.00;;;;;;5140303;27;20505;-74
2021/08/07 07:09:11;;;;;;;5.63;4.90;;;19.30;1.00;;;;;;5131989;27;20495;-74
2021/08/07 07:11:38;;;;;;;6.80;4.00;;;19.40;1.00;;;;;;5143194;27;20500;-75
2021/08/07 07:14:04;;;;;;;5.53;3.80;;;19.50;1.00;;;;;;5139388;27;20461;-73
2021/08/07 07:16:31;;;;;;;5.07;4.23;;;19.50;1.00;;;;;;5131164;27;20453;-71
2021/08/07 07:18:58;;;;;;;4.97;4.10;;;19.50;1.00;;;;;;5128366;27;20608;-71
2021/08/07 07:21:25;;;;;;;6.00;4.30;;;19.40;1.00;;;;;;5128210;27;20893;-71
2021/08/07 07:23:53;;;;;;;4.63;4.23;;;19.50;1.00;;;;;;5126379;27;20441;-70
2021/08/07 07:26:21;;;;;;;4.53;4.10;;;19.50;1.00;;;;;;5127042;27;20444;-70
2021/08/07 07:28:48;;;;;;;4.53;3.80;;;19.60;1.00;;;;;;5132875;27;20457;-72
2021/08/07 07:31:15;;;;;;;4.70;4.23;;;19.70;1.00;;;;;;5140505;27;20447;-70
2021/08/07 07:33:41;;;;;;;5.97;4.20;;;19.70;1.00;;;;;;5155235;27;20410;-71
2021/08/07 07:36:08;;;;;;;4.50;3.97;;;19.80;1.00;;;;;;5142274;27;20997;-72
2021/08/07 07:38:35;;;;;;;4.53;4.10;;;19.90;1.00;;;;;;5128252;27;20569;-72
2021/08/07 07:41:03;;;;;;;4.43;4.00;;;20.00;1.00;;;;;;5103676;27;21346;-70
2021/08/07 07:43:30;;;;;;;4.70;3.70;;;20.00;1.00;;;;;;5126781;27;20402;-71
2021/08/07 07:45:57;;;;;;;4.97;3.73;;;20.10;1.00;;;;;;5131779;27;20472;-72
2021/08/07 07:48:25;;;;;;;4.27;3.80;;;20.30;1.00;;;;;;5128002;27;20480;-70
2021/08/07 07:50:52;;;;;;;4.97;4.07;;;20.40;1.00;;;;;;5126987;27;20622;-71
2021/08/07 07:53:19;;;;;;;4.17;3.13;;;20.50;1.00;;;;;;5115265;27;20441;-71
2021/08/07 07:55:46;;;;;;;3.70;3.40;;;20.60;1.00;;;;;;5117828;27;20453;-72
2021/08/07 07:58:14;;;;;;;3.83;3.33;;;20.60;1.00;;;;;;5110068;27;20449;-71
2021/08/07 08:00:41;;;;;;;4.33;3.77;;;20.70;1.00;;;;;;5123165;27;20462;-71
2021/08/07 08:03:08;;;;;;;4.07;3.53;;;20.90;1.00;;;;;;5122971;27;20451;-71
2021/08/07 08:05:34;;;;;;;4.93;3.93;;;21.10;1.00;;;;;;5116185;27;20450;-72
2021/08/07 08:08:01;;;;;;;6.77;4.10;;;21.30;1.00;;;;;;5097046;27;20446;-72
2021/08/07 08:10:29;;;;;;;4.13;3.60;;;21.50;1.00;;;;;;5114006;27;20454;-70
2021/08/07 08:12:56;;;;;;;4.63;3.40;;;21.60;1.00;;;;;;5114447;27;20458;-71
2021/08/07 08:15:24;;;;;;;4.80;3.70;;;21.70;1.00;;;;;;5116983;27;20447;-71
2021/08/07 08:17:50;;;;;;;5.70;3.40;;;21.90;1.00;;;;;;5117225;27;20491;-72
2021/08/07 08:20:17;;;;;;;3.90;3.30;;;22.10;1.00;;;;;;5113291;27;21182;-72
2021/08/07 08:22:44;;;;;;;3.40;2.67;;;22.20;1.00;;;;;;5111813;27;20408;-72
2021/08/07 08:25:11;;;;;;;4.10;3.30;;;22.20;1.00;;;;;;5114350;27;20452;-72
2021/08/07 08:27:38;;;;;;;4.80;4.03;;;22.30;1.00;;;;;;5108007;27;20479;-71
2021/08/07 08:30:06;;;;;;;4.00;3.50;;;22.40;1.00;;;;;;5106670;27;20520;-72
2021/08/07 08:32:35;;;;;;;4.60;3.63;;;22.60;1.00;;;;;;5113053;27;20448;-71
2021/08/07 08:35:01;;;;;;;3.73;3.10;;;22.70;1.00;;;;;;5111695;27;20491;-71
2021/08/07 08:37:30;;;;;;;4.33;3.07;;;22.80;1.00;;;;;;5110366;27;20470;-72
2021/08/07 08:39:58;;;;;;;3.43;3.03;;;22.80;1.00;;;;;;5111240;27;21232;-71
2021/08/07 08:42:26;;;;;;;3.40;3.10;;;22.90;1.00;;;;;;5109203;27;20476;-71
2021/08/07 08:44:53;;;;;;;2.93;2.63;;;23.00;1.00;;;;;;5110858;27;24932;-71
2021/08/07 08:47:21;;;;;;;2.73;2.53;;;22.90;1.00;;;;;;5105697;27;20483;-71
2021/08/07 08:49:51;;;;;;;5.57;2.53;;;22.80;1.00;;;;;;5111304;27;20445;-71
2021/08/07 08:52:22;;;;;;;2.97;2.77;;;23.00;1.00;;;;;;5109188;27;20441;-72
2021/08/07 08:54:49;;;;;;;3.67;2.90;;;23.20;1.00;;;;;;5110449;27;20472;-73
2021/08/07 08:57:17;;;;;;;3.03;2.73;;;23.40;1.00;;;;;;5109245;27;20969;-72
2021/08/07 08:59:44;;;;;;;3.20;2.47;;;23.50;1.00;;;;;;5110464;27;20441;-72
2021/08/07 09:02:10;;;;;;;3.80;2.30;;;23.40;1.00;;;;;;5110613;27;20480;-73
2021/08/07 09:04:37;;;;;;;4.27;3.03;;;23.60;1.00;;;;;;5108026;27;20909;-73
2021/08/07 09:07:06;;;;;;;2.90;2.40;;;23.50;1.00;;;;;;5107793;27;20472;-72
2021/08/07 09:09:38;;;;;;;4.23;1.93;;;23.70;1.00;;;;;;5105772;27;21268;-74
2021/08/07 09:12:05;;;;;;;2.73;2.33;;;23.70;1.00;;;;;;5109220;27;20462;-71
2021/08/07 09:14:35;;;;;;;2.50;2.30;;;23.60;1.00;;;;;;5108196;27;20978;-72
2021/08/07 09:17:13;;;;;;;2.60;2.23;;;23.60;1.00;;;;;;5110097;27;20441;-72
2021/08/07 09:19:52;;;;;;;5.13;2.53;;;23.60;1.00;;;;;;5115278;27;20460;-75
2021/08/07 09:22:23;;;;;;;2.70;2.27;;;23.60;1.00;;;;;;5119418;27;20412;-73
2021/08/07 09:25:09;;;;;;;2.80;2.20;;;23.70;1.00;;;;;;5113688;27;20491;-72
2021/08/07 09:27:38;;;;;;;2.93;2.53;;;23.90;1.00;;;;;;5112355;27;20541;-73
2021/08/07 09:30:27;;;;;;;2.40;2.20;;;23.80;1.00;;;;;;5115739;27;20547;-72
2021/08/07 09:32:55;;;;;;;2.10;1.93;;;23.80;1.00;;;;;;5094406;27;20434;-71
2021/08/07 09:35:24;;;;;;;3.00;2.00;;;23.60;1.00;;;;;;5119470;27;20463;-69
2021/08/07 09:38:10;;;;;;;2.80;2.60;;;24.00;1.00;;;;;;5126222;27;20542;-71
2021/08/07 09:40:46;;;;;;;3.00;1.87;;;25.30;1.00;;;;;;5094547;27;20574;-70
2021/08/07 09:43:15;;;;;;;2.00;1.80;;;26.10;1.00;;;;;;5106286;27;20452;-77
2021/08/07 09:45:43;;;;;;;2.00;1.63;;;27.40;1.00;;;;;;5110742;27;20436;-73
2021/08/07 09:48:12;;;;;;;3.20;2.00;;;28.40;1.00;;;;;;5108028;27;20479;-71
2021/08/07 09:50:40;;;;;;;4.00;2.07;;;29.10;1.00;;;;;;5107940;27;20468;-75
2021/08/07 09:53:19;;;;;;;1.83;1.60;;;29.60;1.00;;;;;;5110877;27;20921;-72
2021/08/07 09:56:03;;;;;;;2.10;1.90;;;30.00;1.00;;;;;;5111719;27;20457;-71
2021/08/07 09:58:30;;;;;;;3.00;1.80;;;29.10;1.00;;;;;;5111004;27;20461;-71
2021/08/07 10:00:57;;;;;;;2.50;2.30;;;28.20;1.00;;;;;;5108796;27;20546;-73
2021/08/07 10:03:27;;;;;;;2.87;2.13;;;27.70;1.00;;;;;;5108266;27;20456;-73
2021/08/07 10:05:54;;;;;;;2.63;2.40;;;27.90;1.00;;;;;;5113152;27;20564;-70
2021/08/07 10:08:22;;;;;;;3.20;2.80;;;28.60;1.00;;;;;;5108669;27;20458;-72
2021/08/07 10:10:51;;;;;;;2.50;1.83;;;28.80;1.00;;;;;;5106926;27;21097;-74
2021/08/07 10:13:19;;;;;;;1.97;1.73;;;30.00;1.00;;;;;;5105647;27;20457;-72
2021/08/07 10:15:46;;;;;;;6.47;5.97;;;30.60;1.00;;;;;;5107435;27;20480;-71
2021/08/07 10:18:13;;;;;;;2.40;2.20;;;30.40;1.00;;;;;;5105452;27;20452;-72
2021/08/07 10:20:42;;;;;;;2.90;2.10;;;29.60;1.00;;;;;;5113641;27;20425;-70
2021/08/07 10:23:09;;;;;;;2.30;1.77;;;29.00;1.00;;;;;;5106252;27;20536;-70
2021/08/07 10:25:43;;;;;;;3.20;1.70;;;28.90;1.00;;;;;;5108620;27;20489;-71
2021/08/07 10:28:11;;;;;;;1.70;1.60;;;29.80;1.00;;;;;;5107716;27;20466;-72
2021/08/07 10:30:39;;;;;;;2.13;1.77;;;30.30;1.00;;;;;;5106588;27;20459;-71
2021/08/07 10:33:07;;;;;;;2.03;1.67;;;30.50;1.00;;;;;;5107972;27;20434;-71
2021/08/07 10:35:34;;;;;;;2.00;1.57;;;30.60;1.00;;;;;;5106892;27;21144;-72
2021/08/07 10:38:01;;;;;;;2.70;1.57;;;30.80;1.00;;;;;;5109634;27;20464;-71
2021/08/07 10:40:28;;;;;;;2.07;1.80;;;31.70;1.00;;;;;;5109824;27;20456;-72
2021/08/07 10:42:56;;;;;;;2.00;1.60;;;32.30;1.00;;;;;;5111321;27;20459;-71
2021/08/07 10:45:24;;;;;;;2.77;1.77;;;31.40;1.00;;;;;;5105435;27;20421;-70
2021/08/07 10:47:52;;;;;;;2.67;1.87;;;30.90;1.00;;;;;;5108994;27;20449;-72
2021/08/07 10:50:37;;;;;;;1.73;1.53;;;30.70;1.00;;;;;;5106452;27;20472;-74
2021/08/07 10:53:27;;;;;;;2.00;1.70;;;30.90;1.00;;;;;;5110228;27;21626;-72
2021/08/07 10:55:55;;;;;;;2.47;1.90;;;30.10;1.00;;;;;;5099610;27;20456;-72
2021/08/07 10:58:38;;;;;;;5.00;1.63;;;29.60;1.00;;;;;;5104051;27;21756;-71
2021/08/07 11:01:27;;;;;;;1.80;1.47;;;29.60;1.00;;;;;;5101322;27;20463;-71
2021/08/07 11:04:08;;;;;;;2.33;1.30;;;29.10;1.00;;;;;;5104065;27;20446;-72
2021/08/07 11:06:53;;;;;;;1.53;1.33;;;29.00;1.00;;;;;;5105093;27;20457;-71
2021/08/07 11:09:24;;;;;;;1.77;1.57;;;29.10;1.00;;;;;;5107198;27;20464;-71
2021/08/07 11:12:21;;;;;;;2.00;1.50;;;30.00;1.00;;;;;;5100715;27;20463;-70
2021/08/07 11:14:52;;;;;;;4.80;4.37;;;31.10;1.00;;;;;;5108182;27;20944;-72
2021/08/07 11:17:29;;;;;;;2.53;1.60;;;31.00;1.00;;;;;;5103103;27;20463;-72
2021/08/07 11:20:00;;;;;;;1.93;1.70;;;31.00;1.00;;;;;;5101744;27;20461;-75
2021/08/07 11:23:07;;;;;;;4.20;1.90;;;31.30;1.00;;;;;;5103300;27;21961;-71
2021/08/07 11:25:54;;;;;;;5.10;1.90;;;31.90;1.00;;;;;;5105591;27;21002;-70
2021/08/07 11:28:21;;;;;;;2.30;1.60;;;32.50;1.00;;;;;;5101386;27;20602;-72
2021/08/07 11:31:12;;;;;;;2.60;1.20;;;33.30;1.00;;;;;;5098105;27;20429;-73
2021/08/07 11:33:39;;;;;;;2.03;1.40;;;34.30;1.00;;;;;;5100462;27;20421;-71
2021/08/07 11:36:07;;;;;;;1.70;1.20;;;34.80;1.00;;;;;;5099169;27;20461;-73
2021/08/07 11:38:34;;;;;;;1.50;1.20;;;34.60;1.00;;;;;;5104237;27;20459;-73
2021/08/07 11:41:03;;;;;;;1.40;1.03;;;33.70;1.00;;;;;;5103271;27;20534;-72
2021/08/07 11:43:32;;;;;;;1.80;1.30;;;33.70;1.00;;;;;;5101121;27;20460;-72
2021/08/07 11:46:07;;;;;;;1.87;1.13;;;34.20;1.00;;;;;;5100030;27;20974;-72
2021/08/07 11:48:36;;;;;;;2.77;1.67;;;33.50;1.00;;;;;;5098831;27;20482;-72
2021/08/07 11:51:04;;;;;;;4.70;1.47;;;32.60;1.00;;;;;;5100821;27;21029;-72
2021/08/07 11:53:36;;;;;;;2.10;1.77;;;32.20;1.00;;;;;;5108557;27;20479;-72
2021/08/07 11:56:05;;;;;;;1.97;1.30;;;32.50;1.00;;;;;;5098157;27;20863;-72
2021/08/07 11:58:33;;;;;;;2.00;1.50;;;32.30;1.00;;;;;;5110005;27;20464;-72
2021/08/07 12:01:01;;;;;;;10.70;9.70;;;31.30;1.00;;;;;;5107729;27;21219;-72
2021/08/07 12:03:39;;;;;;;4.07;1.40;;;31.50;1.00;;;;;;5110715;27;20997;-73
2021/08/07 12:06:06;;;;;;;2.13;1.20;;;32.00;1.00;;;;;;5108352;27;20981;-72
2021/08/07 12:08:34;;;;;;;3.03;1.50;;;32.20;1.00;;;;;;5114611;27;21306;-73
2021/08/07 12:11:02;;;;;;;4.10;3.80;;;32.00;1.00;;;;;;5105642;27;20452;-72
2021/08/07 12:13:30;;;;;;;2.10;1.30;;;32.40;1.00;;;;;;5105763;27;20456;-71
2021/08/07 12:16:01;;;;;;;2.10;1.17;;;32.50;1.00;;;;;;5108197;27;20439;-72
2021/08/07 12:18:43;;;;;;;2.07;1.87;;;32.10;1.00;;;;;;5109934;27;20922;-72
2021/08/07 12:21:11;;;;;;;2.03;1.20;;;31.90;1.00;;;;;;5106757;27;20692;-72
2021/08/07 12:23:43;;;;;;;2.20;1.30;;;31.00;1.00;;;;;;5105810;27;20952;-73
2021/08/07 12:26:10;;;;;;;3.17;1.60;;;30.10;1.00;;;;;;5109446;27;20543;-72
2021/08/07 12:28:36;;;;;;;1.90;1.40;;;30.20;1.00;;;;;;5106131;27;20441;-72
2021/08/07 12:31:04;;;;;;;1.83;1.27;;;30.60;1.00;;;;;;5111061;27;21276;-72
2021/08/07 12:33:32;;;;;;;1.50;1.10;;;31.00;1.00;;;;;;5110141;27;20435;-72
2021/08/07 12:36:11;;;;;;;2.80;1.77;;;31.30;1.00;;;;;;5107230;27;21727;-71
2021/08/07 12:38:42;;;;;;;1.23;0.90;;;31.90;1.00;;;;;;5114518;27;20421;-71
2021/08/07 12:41:09;;;;;;;1.63;1.33;;;31.40;1.00;;;;;;5114061;27;20455;-72
2021/08/07 12:43:36;;;;;;;4.03;1.27;;;30.70;1.00;;;;;;5106265;27;21271;-72
2021/08/07 12:46:05;;;;;;;1.50;1.10;;;30.90;1.00;;;;;;5104770;27;21534;-73
2021/08/07 12:48:49;;;;;;;1.63;1.17;;;31.30;1.00;;;;;;5105395;27;20461;-73
2021/08/07 12:51:23;;;;;;;1.47;1.10;;;31.20;1.00;;;;;;5107602;27;20442;-73
2021/08/07 12:53:50;;;;;;;2.60;1.40;;;30.10;1.00;;;;;;5110588;27;20452;-73
2021/08/07 12:56:18;;;;;;;1.60;1.20;;;29.10;1.00;;;;;;5109669;27;20494;-73
2021/08/07 12:59:01;;;;;;;1.33;0.97;;;28.30;1.00;;;;;;5104213;27;21793;-72
2021/08/07 13:01:28;;;;;;;4.80;1.60;;;27.70;1.00;;;;;;5107021;27;20961;-73
2021/08/07 13:03:57;;;;;;;2.80;1.20;;;27.40;1.00;;;;;;5106955;27;20452;-72
2021/08/07 13:06:26;;;;;;;3.40;1.30;;;27.20;1.00;;;;;;5105521;27;20463;-73